Time;durP1;ratioP1;P1;durP2;ratioP2;P2;SDS_P1;SDS_P2;PMS_P1;PMS_P2;Temp;Humidity;BMP_temperature;BMP_pressure;BME280_temperature;BME280_humidity;BME280_pressure;Samples;Min_cycle;Max_cycle;Signal;HPM_P1;HPM_P2
2022/05/13 00:01:04;;;;;;;0.20;0.15;;;;;;;13.15;100.00;99786.22;7391411;19;20022;-47
2022/05/13 00:03:31;;;;;;;0.30;0.30;;;;;;;13.18;100.00;99783.22;7391332;19;20027;-47
2022/05/13 00:05:57;;;;;;;0.85;0.10;;;;;;;13.16;100.00;99777.34;7390718;19;20022;-47
2022/05/13 00:08:24;;;;;;;0.10;0.10;;;;;;;13.18;100.00;99780.41;7390171;19;20014;-47
2022/05/13 00:10:50;;;;;;;2.80;0.40;;;;;;;13.12;100.00;99773.25;7390786;19;20046;-47
2022/05/13 00:13:17;;;;;;;1.15;0.60;;;;;;;13.07;100.00;99776.75;7390729;19;20011;-47
2022/05/13 00:15:44;;;;;;;0.80;0.57;;;;;;;13.23;100.00;99774.09;7390373;19;20014;-47
2022/05/13 00:18:10;;;;;;;0.32;0.32;;;;;;;13.18;100.00;99776.84;7390408;19;20011;-47
2022/05/13 00:20:37;;;;;;;4.47;0.73;;;;;;;13.16;100.00;99774.56;7392992;19;20620;-47
2022/05/13 00:23:03;;;;;;;1.42;1.33;;;;;;;13.25;100.00;99776.41;7390781;19;20044;-47
2022/05/13 00:25:33;;;;;;;0.20;0.20;;;;;;;13.22;100.00;99772.56;7390998;19;20412;-47
2022/05/13 00:28:00;;;;;;;2.08;0.55;;;;;;;13.23;100.00;99770.53;7392112;19;20006;-47
2022/05/13 00:30:29;;;;;;;0.20;0.20;;;;;;;13.34;100.00;99763.00;7393975;19;20014;-47
2022/05/13 00:32:55;;;;;;;2.00;0.30;;;;;;;13.37;100.00;99766.84;7390164;19;20043;-46
2022/05/13 00:35:22;;;;;;;0.40;0.40;;;;;;;13.42;100.00;99766.91;7390052;19;20022;-47
2022/05/13 00:37:49;;;;;;;3.13;0.20;;;;;;;13.47;100.00;99777.34;7391480;19;20015;-47
2022/05/13 00:40:17;;;;;;;3.88;0.90;;;;;;;13.55;100.00;99772.06;7392373;19;20011;-47
2022/05/13 00:42:43;;;;;;;5.07;0.38;;;;;;;13.61;100.00;99772.88;7392464;19;20010;-47
2022/05/13 00:45:13;;;;;;;0.55;0.30;;;;;;;13.60;100.00;99769.28;7392013;19;20018;-47
2022/05/13 00:47:44;;;;;;;0.38;0.38;;;;;;;13.52;100.00;99778.66;7390474;19;20328;-47
2022/05/13 00:50:14;;;;;;;0.47;0.47;;;;;;;13.47;100.00;99774.53;7391649;19;20011;-47
2022/05/13 00:52:48;;;;;;;1.10;0.28;;;;;;;13.59;100.00;99778.97;7390859;19;20426;-47
2022/05/13 00:55:24;;;;;;;2.38;0.40;;;;;;;13.66;100.00;99770.09;7389739;19;20011;-47
2022/05/13 00:57:52;;;;;;;7.50;0.40;;;;;;;13.65;100.00;99782.56;7391534;19;20017;-47
2022/05/13 01:00:18;;;;;;;2.45;0.40;;;;;;;13.77;100.00;99774.25;7391229;19;20006;-47
2022/05/13 01:02:45;;;;;;;0.10;0.10;;;;;;;13.80;100.00;99770.44;7390133;19;20017;-47
2022/05/13 01:05:13;;;;;;;0.50;0.43;;;;;;;13.88;100.00;99772.25;7390289;19;20018;-47
2022/05/13 01:07:40;;;;;;;3.58;0.95;;;;;;;13.85;100.00;99772.50;7389237;19;20015;-47
2022/05/13 01:10:13;;;;;;;0.50;0.47;;;;;;;13.88;100.00;99771.53;7395029;19;20031;-47
2022/05/13 01:12:44;;;;;;;1.02;0.43;;;;;;;13.72;100.00;99766.56;7394717;19;20011;-47
2022/05/13 01:15:13;;;;;;;0.70;0.32;;;;;;;13.57;100.00;99770.31;7388221;19;20422;-47
2022/05/13 01:20:38;;;;;;;0.70;0.70;;;;;;;13.36;100.00;99766.06;7392728;19;20614;-47
2022/05/13 01:23:09;;;;;;;4.82;0.50;;;;;;;13.27;100.00;99766.25;7388888;19;20529;-47
2022/05/13 01:25:40;;;;;;;0.10;0.10;;;;;;;13.25;100.00;99768.78;7387998;19;20412;-48
2022/05/13 01:28:13;;;;;;;1.88;0.43;;;;;;;13.17;100.00;99759.31;7390335;19;20015;-47
2022/05/13 01:30:44;;;;;;;0.13;0.13;;;;;;;13.16;100.00;99757.78;7389471;19;20014;-48
2022/05/13 01:33:11;;;;;;;0.93;0.47;;;;;;;13.13;100.00;99758.75;7389423;19;20015;-47
2022/05/13 01:35:40;;;;;;;3.20;0.32;;;;;;;13.07;100.00;99760.75;7385778;19;20034;-47
2022/05/13 01:38:06;;;;;;;0.52;0.20;;;;;;;13.10;100.00;99759.75;7387742;19;20011;-47
2022/05/13 01:40:33;;;;;;;2.35;0.80;;;;;;;13.11;100.00;99754.91;7388932;19;20014;-47
2022/05/13 01:42:59;;;;;;;0.45;0.30;;;;;;;13.15;100.00;99763.84;7389539;19;20050;-47
2022/05/13 01:45:25;;;;;;;1.02;0.75;;;;;;;13.11;100.00;99775.25;7388674;19;20010;-47
2022/05/13 01:47:51;;;;;;;0.30;0.30;;;;;;;13.08;100.00;99772.69;7389239;19;20033;-46
2022/05/13 01:50:18;;;;;;;0.82;0.43;;;;;;;13.09;100.00;99771.44;7393797;19;20011;-46
2022/05/13 01:52:44;;;;;;;2.50;0.82;;;;;;;13.04;100.00;99772.13;7396906;19;20011;-46
2022/05/13 01:55:10;;;;;;;0.73;0.70;;;;;;;12.89;100.00;99769.44;7394540;19;20015;-46
2022/05/13 01:57:36;;;;;;;6.57;0.57;;;;;;;12.82;100.00;99775.47;7396404;19;20470;-46
2022/05/13 02:00:03;;;;;;;0.60;0.55;;;;;;;12.81;100.00;99785.09;7394452;19;20018;-47
2022/05/13 02:05:24;;;;;;;1.45;0.85;;;;;;;12.66;100.00;99790.03;7394290;19;20011;-46
2022/05/13 02:07:51;;;;;;;1.70;0.30;;;;;;;12.67;100.00;99791.53;7395809;19;20010;-46
2022/05/13 02:10:19;;;;;;;5.88;0.68;;;;;;;12.70;100.00;99793.38;7396595;19;20340;-46
2022/05/13 02:12:45;;;;;;;0.20;0.20;;;;;;;12.70;100.00;99794.16;7396100;19;20408;-46
2022/05/13 02:15:11;;;;;;;2.17;0.60;;;;;;;12.72;100.00;99797.22;7394063;19;20025;-46
2022/05/13 02:17:38;;;;;;;3.80;1.02;;;;;;;12.79;100.00;99804.41;7396454;19;20794;-46
2022/05/13 02:20:06;;;;;;;1.42;0.32;;;;;;;12.76;100.00;99797.00;7398916;19;20025;-46
2022/05/13 02:22:32;;;;;;;4.03;0.50;;;;;;;12.78;100.00;99797.25;7396261;19;20015;-46
2022/05/13 02:24:59;;;;;;;0.52;0.25;;;;;;;12.85;100.00;99794.03;7396327;19;20118;-46
2022/05/13 02:27:26;;;;;;;0.57;0.52;;;;;;;12.85;100.00;99792.03;7395620;19;20031;-46
2022/05/13 02:29:52;;;;;;;5.50;0.85;;;;;;;12.86;100.00;99792.78;7395379;19;20010;-46
2022/05/13 02:32:18;;;;;;;0.55;0.30;;;;;;;12.83;100.00;99788.94;7395367;19;20096;-47
2022/05/13 02:34:44;;;;;;;0.63;0.43;;;;;;;12.86;100.00;99778.81;7397281;19;20013;-46
2022/05/13 02:37:11;;;;;;;0.35;0.35;;;;;;;12.81;100.00;99773.94;7400504;19;20010;-46
2022/05/13 02:39:37;;;;;;;7.60;0.65;;;;;;;12.95;100.00;99775.84;7404746;19;20479;-47
2022/05/13 02:42:04;;;;;;;0.20;0.20;;;;;;;13.01;100.00;99785.06;7400933;19;20010;-46
2022/05/13 02:44:30;;;;;;;4.78;0.40;;;;;;;13.12;100.00;99787.22;7399249;19;20015;-47
2022/05/13 02:46:56;;;;;;;1.45;0.43;;;;;;;13.15;100.00;99784.19;7400124;19;20010;-46
2022/05/13 02:49:22;;;;;;;4.07;0.55;;;;;;;13.15;100.00;99784.19;7403215;19;20011;-47
2022/05/13 02:51:54;;;;;;;0.95;0.55;;;;;;;13.15;100.00;99784.19;7398116;19;20074;-54
2022/05/13 02:54:21;;;;;;;0.20;0.20;;;;;;;13.13;100.00;99785.94;7399272;19;20014;-56
2022/05/13 02:56:47;;;;;;;0.40;0.40;;;;;;;13.03;100.00;99776.94;7398384;19;20084;-47
2022/05/13 02:59:13;;;;;;;5.88;0.73;;;;;;;13.04;100.00;99784.06;7402473;19;20018;-56
2022/05/13 03:02:01;;;;;;;0.63;0.60;;;;;;;13.14;100.00;99791.06;7397982;19;20011;-47
2022/05/13 03:04:27;;;;;;;0.50;0.20;;;;;;;13.21;100.00;99785.00;7395661;19;20448;-84
2022/05/13 03:06:53;;;;;;;3.35;0.70;;;;;;;13.21;100.00;99785.00;7389716;19;20439;-82
2022/05/13 03:09:20;;;;;;;1.60;0.52;;;;;;;13.27;100.00;99774.66;7393493;19;20461;-83
2022/05/13 03:11:46;;;;;;;4.75;0.43;;;;;;;13.29;100.00;99786.13;7391697;19;20400;-81
2022/05/13 03:14:12;;;;;;;0.13;0.10;;;;;;;13.25;100.00;99782.00;7391549;19;20042;-83
2022/05/13 03:16:38;;;;;;;3.70;0.30;;;;;;;13.20;100.00;99779.91;7392233;19;20010;-83
2022/05/13 03:19:04;;;;;;;3.50;0.98;;;;;;;13.16;100.00;99784.97;7392728;19;20022;-81
2022/05/13 03:21:31;;;;;;;0.38;0.38;;;;;;;13.15;100.00;99784.19;7390804;19;20483;-82
2022/05/13 03:23:58;;;;;;;1.58;0.50;;;;;;;13.13;100.00;99775.53;7392740;19;20017;-82
2022/05/13 03:26:24;;;;;;;6.15;0.93;;;;;;;13.14;100.00;99777.09;7390111;19;20509;-82
2022/05/13 03:28:50;;;;;;;3.42;0.30;;;;;;;13.12;100.00;99779.59;7390252;19;20018;-81
2022/05/13 03:31:16;;;;;;;1.52;0.80;;;;;;;13.12;100.00;99776.81;7392343;19;20070;-83
2022/05/13 03:33:42;;;;;;;4.72;0.45;;;;;;;13.14;100.00;99765.91;7390414;19;20360;-82
2022/05/13 03:36:12;;;;;;;6.22;0.30;;;;;;;13.14;100.00;99770.72;7390678;19;20503;-82
2022/05/13 03:38:40;;;;;;;1.30;0.55;;;;;;;13.19;100.00;99767.97;7393338;19;20516;-82
2022/05/13 03:41:07;;;;;;;0.52;0.25;;;;;;;13.17;100.00;99772.50;7391468;19;20014;-82
2022/05/13 03:43:33;;;;;;;0.75;0.52;;;;;;;13.17;100.00;99770.47;7391060;19;20428;-82
2022/05/13 03:45:59;;;;;;;1.48;0.55;;;;;;;13.12;100.00;99770.44;7389394;19;20033;-82
2022/05/13 03:48:25;;;;;;;1.58;0.47;;;;;;;13.03;100.00;99765.75;7391074;19;20490;-82
2022/05/13 03:50:51;;;;;;;1.45;0.30;;;;;;;12.92;100.00;99763.63;7393542;19;20011;-82
2022/05/13 03:53:18;;;;;;;0.25;0.15;;;;;;;12.83;100.00;99774.19;7390718;19;20029;-82
2022/05/13 03:55:45;;;;;;;3.90;0.60;;;;;;;12.76;100.00;99781.00;7388893;19;20026;-82
2022/05/13 03:58:12;;;;;;;1.33;0.22;;;;;;;12.74;100.00;99782.75;7394748;19;20094;-83
2022/05/13 04:00:38;;;;;;;0.30;0.22;;;;;;;12.77;100.00;99781.78;7390457;19;20455;-83
2022/05/13 04:03:04;;;;;;;0.20;0.20;;;;;;;12.82;100.00;99775.47;7388950;19;20348;-82
2022/05/13 04:11:00;;;;;;;1.15;1.00;;;;;;;12.97;100.00;99773.34;7391119;19;20038;-83
2022/05/13 04:16:12;;;;;;;7.60;0.75;;;;;;;12.99;100.00;99770.81;7389665;19;20118;-82
2022/05/13 04:18:39;;;;;;;0.30;0.30;;;;;;;13.01;100.00;99768.28;7390331;19;20025;-82
2022/05/13 04:21:10;;;;;;;2.63;0.40;;;;;;;13.05;100.00;99763.28;7394735;19;20015;-83
2022/05/13 04:23:38;;;;;;;0.40;0.40;;;;;;;13.16;100.00;99762.59;7389375;19;20049;-82
2022/05/13 04:26:05;;;;;;;1.02;0.43;;;;;;;13.22;100.00;99760.59;7391098;19;20030;-82
2022/05/13 04:28:31;;;;;;;9.13;0.68;;;;;;;13.27;100.00;99771.84;7391537;19;20011;-82
2022/05/13 04:31:00;;;;;;;0.90;0.80;;;;;;;13.30;100.00;99776.44;7388371;19;20021;-83
2022/05/13 04:33:26;;;;;;;1.20;0.63;;;;;;;13.30;100.00;99770.84;7389232;19;20034;-82
2022/05/13 04:35:53;;;;;;;3.20;0.70;;;;;;;13.31;100.00;99775.19;7385964;19;20025;-82
2022/05/13 04:38:19;;;;;;;0.75;0.65;;;;;;;13.35;100.00;99775.72;7388480;19;20022;-83
2022/05/13 04:40:45;;;;;;;4.05;0.55;;;;;;;13.36;100.00;99771.66;7389580;19;20014;-83
2022/05/13 04:43:11;;;;;;;1.60;0.82;;;;;;;13.39;100.00;99772.69;7389605;19;20022;-82
2022/05/13 04:45:38;;;;;;;9.57;0.70;;;;;;;13.41;100.00;99779.34;7389870;19;20023;-83
2022/05/13 04:48:21;;;;;;;0.47;0.40;;;;;;;13.35;100.00;99774.97;7390267;19;20029;-86
2022/05/13 04:50:53;;;;;;;0.22;0.22;;;;;;;13.28;100.00;99776.19;7396566;19;20018;-86
2022/05/13 04:53:23;;;;;;;1.00;0.88;;;;;;;13.31;100.00;99780.78;7395276;19;20047;-87
2022/05/13 04:55:50;;;;;;;0.43;0.43;;;;;;;13.43;100.00;99782.41;7394612;19;20018;-85
2022/05/13 04:58:17;;;;;;;0.17;0.17;;;;;;;13.39;100.00;99787.47;7395483;19;20017;-87
2022/05/13 05:00:45;;;;;;;1.13;0.52;;;;;;;13.47;100.00;99788.53;7394875;19;20406;-87
2022/05/13 05:03:11;;;;;;;1.65;0.73;;;;;;;13.49;100.00;99790.84;7396143;19;20082;-86
2022/05/13 05:05:37;;;;;;;7.13;1.08;;;;;;;13.53;100.00;99786.56;7393849;19;20014;-87
2022/05/13 05:08:04;;;;;;;0.10;0.10;;;;;;;13.59;100.00;99790.16;7393061;19;20015;-84
2022/05/13 05:10:31;;;;;;;3.63;0.20;;;;;;;13.59;100.00;99783.78;7390467;19;20408;-85
2022/05/13 05:12:57;;;;;;;0.30;0.30;;;;;;;13.64;100.00;99789.41;7387803;19;20011;-84
2022/05/13 05:15:25;;;;;;;3.33;0.35;;;;;;;13.71;100.00;99793.03;7388361;19;20018;-83
2022/05/13 05:17:51;;;;;;;0.30;0.28;;;;;;;13.77;100.00;99794.63;7390389;19;20015;-84
2022/05/13 05:20:20;;;;;;;4.95;1.30;;;;;;;13.75;100.00;99796.38;7393692;19;20097;-84
2022/05/13 05:22:46;;;;;;;1.05;0.82;;;;;;;13.73;100.00;99794.06;7387600;19;20073;-83
2022/05/13 05:25:19;;;;;;;0.90;0.65;;;;;;;13.74;100.00;99800.44;7395174;19;20019;-83
2022/05/13 05:27:45;;;;;;;1.55;1.15;;;;;;;13.63;100.00;99804.69;7395626;19;20019;-84
2022/05/13 05:30:12;;;;;;;0.47;0.45;;;;;;;13.47;100.00;99816.50;7398723;19;20343;-83
2022/05/13 05:32:39;;;;;;;1.13;0.75;;;;;;;13.35;100.00;99819.72;7398234;19;20575;-84
2022/05/13 05:35:08;;;;;;;1.80;0.77;;;;;;;13.29;100.00;99811.28;7396518;19;20491;-82
2022/05/13 05:37:34;;;;;;;0.32;0.32;;;;;;;13.29;100.00;99822.47;7396740;19;20010;-84
2022/05/13 05:40:01;;;;;;;0.95;0.10;;;;;;;13.32;100.00;99821.47;7395208;19;20035;-84
2022/05/13 05:42:27;;;;;;;3.13;0.82;;;;;;;13.32;100.00;99826.31;7395557;19;20045;-84
2022/05/13 05:44:54;;;;;;;0.73;0.73;;;;;;;13.35;100.00;99817.69;7399733;19;20011;-83
2022/05/13 05:47:24;;;;;;;7.95;1.48;;;;;;;13.34;100.00;99818.19;7399172;19;20022;-83
2022/05/13 05:49:50;;;;;;;4.03;0.50;;;;;;;13.28;100.00;99826.50;7399730;19;20015;-83
2022/05/13 05:52:17;;;;;;;0.60;0.60;;;;;;;13.28;100.00;99820.16;7393371;19;20011;-84
2022/05/13 05:57:29;;;;;;;4.82;1.25;;;;;;;13.26;100.00;99831.84;7395871;19;20022;-83
2022/05/13 05:59:55;;;;;;;4.03;0.55;;;;;;;13.33;100.00;99833.44;7399673;19;20424;-82
2022/05/13 06:02:21;;;;;;;0.40;0.32;;;;;;;13.41;100.00;99831.72;7392886;19;20026;-83
2022/05/13 06:04:47;;;;;;;9.30;1.08;;;;;;;13.42;100.00;99850.81;7396698;19;20478;-84
2022/05/13 06:07:15;;;;;;;2.58;0.75;;;;;;;13.47;100.00;99849.34;7394738;19;20022;-82
2022/05/13 06:09:43;;;;;;;6.90;0.82;;;;;;;13.47;100.00;99855.66;7399290;19;20051;-83
2022/05/13 06:12:12;;;;;;;2.45;0.88;;;;;;;13.57;100.00;99848.66;7394830;19;20022;-83
2022/05/13 06:14:39;;;;;;;10.95;0.68;;;;;;;13.67;100.00;99852.81;7393862;19;20018;-83
2022/05/13 06:17:06;;;;;;;6.40;0.47;;;;;;;13.72;100.00;99856.91;7393449;19;20015;-82
2022/05/13 06:19:33;;;;;;;1.33;0.50;;;;;;;13.73;100.00;99860.47;7398012;19;20018;-83
2022/05/13 06:21:59;;;;;;;4.53;0.93;;;;;;;13.73;100.00;99861.22;7394304;19;20040;-83
2022/05/13 06:24:25;;;;;;;0.43;0.40;;;;;;;13.92;100.00;99875.63;7392313;19;20019;-83
2022/05/13 06:26:51;;;;;;;7.50;1.77;;;;;;;14.02;100.00;99876.97;7392430;19;20026;-83
2022/05/13 06:29:23;;;;;;;5.47;1.30;;;;;;;14.11;100.00;99885.19;7394556;19;20023;-82
2022/05/13 06:31:50;;;;;;;5.15;0.82;;;;;;;14.08;100.00;99878.53;7392902;19;20023;-83
2022/05/13 06:34:17;;;;;;;1.95;0.88;;;;;;;14.05;100.00;99875.97;7394272;19;20858;-83
2022/05/13 06:36:43;;;;;;;3.38;0.85;;;;;;;13.94;100.00;99873.88;7392373;19;20494;-83
2022/05/13 06:39:09;;;;;;;1.00;0.52;;;;;;;13.87;100.00;99870.75;7393414;19;20014;-83
2022/05/13 06:41:40;;;;;;;0.82;0.38;;;;;;;13.82;100.00;99875.03;7393610;19;20030;-83
2022/05/13 06:44:08;;;;;;;11.15;1.10;;;;;;;13.80;100.00;99871.19;7393698;19;20090;-83
2022/05/13 06:46:38;;;;;;;0.73;0.73;;;;;;;13.83;100.00;99878.63;7398173;19;20025;-85
2022/05/13 06:49:06;;;;;;;2.75;0.30;;;;;;;13.87;100.00;99881.94;7400080;19;20991;-86
2022/05/13 06:51:33;;;;;;;1.13;0.45;;;;;;;13.92;100.00;99878.44;7390786;19;20018;-84
2022/05/13 06:54:07;;;;;;;6.07;0.80;;;;;;;14.04;100.00;99885.63;7391017;19;20030;-83
2022/05/13 06:56:36;;;;;;;1.65;0.47;;;;;;;14.14;100.00;99895.41;7395543;19;20015;-84
2022/05/13 06:59:04;;;;;;;1.38;0.77;;;;;;;14.25;100.00;99884.28;7396005;19;20027;-85
2022/05/13 07:01:31;;;;;;;10.55;0.65;;;;;;;14.29;100.00;99898.84;7394195;19;20025;-84
2022/05/13 07:03:57;;;;;;;1.50;1.13;;;;;;;14.39;100.00;99902.97;7391578;19;20011;-84
2022/05/13 07:06:23;;;;;;;2.70;0.57;;;;;;;14.48;100.00;99899.97;7394341;19;20036;-85
2022/05/13 07:08:50;;;;;;;3.10;0.60;;;;;;;14.53;100.00;99909.69;7394388;19;20088;-84
2022/05/13 07:11:17;;;;;;;1.40;0.80;;;;;;;14.53;100.00;99910.41;7394838;19;20021;-83
2022/05/13 07:13:45;;;;;;;3.70;1.02;;;;;;;14.45;100.00;99914.97;7396456;19;20014;-87
2022/05/13 07:16:11;;;;;;;1.27;1.17;;;;;;;14.57;100.00;99908.16;7397091;19;20040;-87
2022/05/13 07:18:38;;;;;;;8.05;0.68;;;;;;;14.73;100.00;99915.09;7397521;19;20090;-83
2022/05/13 07:21:05;;;;;;;3.60;0.80;;;;;;;14.80;100.00;99915.41;7396302;19;20329;-82
2022/05/13 07:23:31;;;;;;;1.40;0.68;;;;;;;14.86;100.00;99915.44;7391671;19;20106;-82
2022/05/13 07:25:58;;;;;;;1.35;0.22;;;;;;;14.84;100.00;99918.75;7392760;19;20018;-81
2022/05/13 07:28:28;;;;;;;0.50;0.50;;;;;;;14.86;100.00;99919.00;7391738;19;20486;-81
2022/05/13 07:30:54;;;;;;;3.50;0.65;;;;;;;14.88;100.00;99927.66;7391638;19;20017;-82
2022/05/13 07:33:22;;;;;;;2.65;0.40;;;;;;;14.89;100.00;99932.03;7391963;19;20014;-82
2022/05/13 07:35:49;;;;;;;0.38;0.38;;;;;;;15.04;100.00;99926.22;7388551;19;20015;-81
2022/05/13 07:38:15;;;;;;;1.73;0.70;;;;;;;15.34;100.00;99932.16;7388737;19;20041;-80
2022/05/13 07:43:27;;;;;;;4.90;0.80;;;;;;;15.32;100.00;99927.06;7390560;19;20033;-81
2022/05/13 07:45:53;;;;;;;10.18;1.40;;;;;;;15.42;100.00;99927.63;7390894;19;20019;-84
2022/05/13 07:48:19;;;;;;;1.80;1.02;;;;;;;15.45;100.00;99921.00;7389838;19;20022;-82
2022/05/13 07:50:45;;;;;;;0.30;0.10;;;;;;;15.44;100.00;99923.03;7393937;19;20037;-83
2022/05/13 07:53:12;;;;;;;5.57;0.30;;;;;;;15.45;100.00;99915.38;7388265;19;20021;-81
2022/05/13 07:55:38;;;;;;;1.45;0.50;;;;;;;15.55;100.00;99914.63;7387962;19;20102;-81
2022/05/13 07:58:04;;;;;;;6.07;1.50;;;;;;;15.72;100.00;99912.59;7391573;19;20015;-81
2022/05/13 08:00:33;;;;;;;10.02;1.92;;;;;;;15.83;100.00;99918.22;7389178;19;20049;-81
2022/05/13 08:03:02;;;;;;;0.93;0.77;;;;;;;15.81;100.00;99915.16;7389038;19;20022;-81
2022/05/13 08:05:40;;;;;;;1.88;0.98;;;;;;;15.86;100.00;99924.88;7390726;19;20401;-84
2022/05/13 08:08:30;;;;;;;7.72;1.67;;;;;;;15.92;100.00;99926.41;7394494;19;20464;-83
2022/05/13 08:10:59;;;;;;;7.13;0.65;;;;;;;16.03;100.00;99925.63;7388049;19;20050;-85
2022/05/13 08:13:28;;;;;;;3.40;0.70;;;;;;;15.99;100.00;99924.34;7393077;19;20042;-82
2022/05/13 08:15:54;;;;;;;1.40;0.50;;;;;;;15.97;100.00;99933.31;7385836;19;20041;-82
2022/05/13 08:18:21;;;;;;;0.90;0.35;;;;;;;16.03;100.00;99920.00;7389790;19;20678;-82
2022/05/13 08:20:48;;;;;;;0.28;0.28;;;;;;;15.91;100.00;99922.09;7392503;19;20547;-85
2022/05/13 08:23:14;;;;;;;0.88;0.45;;;;;;;15.80;100.00;99924.09;7392128;19;20047;-81
2022/05/13 08:25:41;;;;;;;5.43;1.20;;;;;;;15.93;100.00;99919.53;7391631;19;20014;-81
2022/05/13 08:28:08;;;;;;;2.92;0.50;;;;;;;15.99;100.00;99929.97;7391027;19;20587;-82
2022/05/13 08:30:36;;;;;;;10.52;1.65;;;;;;;16.02;100.00;99932.53;7388129;19;20025;-81
2022/05/13 08:33:08;;;;;;;3.58;0.63;;;;;;;16.10;100.00;99930.75;7386301;19;20039;-80
2022/05/13 08:35:39;;;;;;;1.58;0.60;;;;;;;16.15;100.00;99938.41;7384351;19;20014;-81
2022/05/13 08:38:06;;;;;;;;;;;;;;;16.12;100.00;99930.22;7389571;19;20015;-81
2022/05/13 08:40:45;;;;;;;4.40;0.40;;;;;;;16.09;100.00;99936.88;7385926;19;19948;-81
2022/05/13 08:43:18;;;;;;;0.22;0.17;;;;;;;16.10;100.00;99936.38;7385762;19;20023;-81
2022/05/13 08:45:52;;;;;;;7.25;1.33;;;;;;;16.15;100.00;99938.41;7384852;19;20011;-81
2022/05/13 08:48:31;;;;;;;4.47;0.30;;;;;;;16.06;100.00;99933.06;7385836;19;20015;-81
2022/05/13 08:51:21;;;;;;;0.43;0.30;;;;;;;16.09;100.00;99934.81;7389915;19;20441;-81
2022/05/13 08:53:55;;;;;;;4.43;0.40;;;;;;;16.03;100.00;99936.88;7384237;19;20598;-85
2022/05/13 08:56:26;;;;;;;2.05;0.55;;;;;;;16.13;100.00;99931.78;7387071;19;20054;-83
2022/05/13 08:59:13;;;;;;;0.47;0.47;;;;;;;16.10;100.00;99930.75;7387166;19;20011;-83
2022/05/13 09:01:45;;;;;;;0.50;0.25;;;;;;;16.20;100.00;99923.56;7389105;19;20019;-83
2022/05/13 09:04:25;;;;;;;4.57;0.63;;;;;;;16.39;100.00;99927.41;7387873;19;20078;-83
2022/05/13 09:07:00;;;;;;;7.18;1.05;;;;;;;16.46;100.00;99926.84;7388144;19;20018;-83
2022/05/13 09:09:27;;;;;;;4.53;0.38;;;;;;;16.63;100.00;99932.50;7388886;19;20011;-82
2022/05/13 09:12:35;;;;;;;3.60;0.63;;;;;;;16.77;100.00;99922.97;7389321;19;20032;-83
2022/05/13 09:15:29;;;;;;;4.25;0.45;;;;;;;17.05;100.00;99920.81;7386822;19;20031;-83
2022/05/13 09:18:39;;;;;;;10.60;0.60;;;;;;;17.23;100.00;99916.63;7386181;19;20102;-82
2022/05/13 09:21:24;;;;;;;3.97;0.57;;;;;;;17.37;100.00;99915.53;7392034;19;20018;-83
2022/05/13 09:23:50;;;;;;;1.88;0.52;;;;;;;17.44;100.00;99903.72;7386307;19;20408;-83
2022/05/13 09:26:21;;;;;;;1.60;0.25;;;;;;;17.89;100.00;99912.63;7389081;19;20026;-82
2022/05/13 09:29:00;;;;;;;2.58;0.88;;;;;;;18.40;100.00;99902.44;7386269;19;20019;-83
2022/05/13 09:31:31;;;;;;;1.70;0.52;;;;;;;18.74;100.00;99914.91;7385047;19;20122;-81
2022/05/13 09:33:57;;;;;;;4.18;0.90;;;;;;;18.92;100.00;99914.19;7390756;19;20109;-84
2022/05/13 09:36:23;;;;;;;1.85;0.30;;;;;;;19.07;100.00;99899.63;7389606;19;20029;-84
2022/05/13 09:38:55;;;;;;;0.38;0.10;;;;;;;19.15;100.00;99918.22;7386023;19;20354;-82
2022/05/13 09:41:33;;;;;;;5.88;0.98;;;;;;;19.21;100.00;99930.22;7387370;19;20013;-82
2022/05/13 09:44:11;;;;;;;1.90;0.25;;;;;;;19.08;100.00;99915.28;7387179;19;20018;-82
2022/05/13 09:46:43;;;;;;;4.55;0.75;;;;;;;19.31;100.00;99905.97;7382858;19;20024;-82
2022/05/13 09:49:18;;;;;;;0.90;0.20;;;;;;;19.62;100.00;99919.38;7387429;19;20337;-82
2022/05/13 09:51:57;;;;;;;4.85;0.60;;;;;;;19.57;100.00;99908.94;7386306;19;20018;-82
2022/05/13 09:54:31;;;;;;;3.35;0.52;;;;;;;19.64;100.00;99907.56;7383688;19;20011;-83
2022/05/13 09:57:11;;;;;;;2.13;0.95;;;;;;;19.70;100.00;99913.13;7386906;19;20503;-84
2022/05/13 09:59:59;;;;;;;2.88;0.10;;;;;;;19.73;100.00;99906.41;7391219;19;20043;-83
2022/05/13 10:02:33;;;;;;;2.38;0.25;;;;;;;19.92;100.00;99912.78;7385910;19;20011;-83
2022/05/13 10:05:19;;;;;;;6.82;1.10;;;;;;;19.71;100.00;99920.31;7387382;19;20019;-83
2022/05/13 10:08:08;;;;;;;7.78;1.10;;;;;;;19.62;100.00;99922.22;7387311;19;20045;-84
2022/05/13 10:16:26;;;;;;;1.08;0.55;;;;;;;20.19;100.00;99931.31;7393015;19;20026;-83
2022/05/13 10:19:00;;;;;;;3.22;0.73;;;;;;;20.20;100.00;99919.53;7393069;19;20011;-85
2022/05/13 10:21:33;;;;;;;1.52;0.43;;;;;;;19.98;100.00;99921.91;7393691;19;20006;-83
2022/05/13 10:24:27;;;;;;;1.30;0.25;;;;;;;19.66;100.00;99919.84;7391671;19;20018;-83
2022/05/13 10:26:56;;;;;;;5.47;0.60;;;;;;;19.47;100.00;99921.94;7394111;19;20117;-82
2022/05/13 10:29:28;;;;;;;0.50;0.10;;;;;;;19.55;100.00;99913.59;7392095;19;20038;-81
2022/05/13 10:31:56;;;;;;;1.65;0.38;;;;;;;19.57;100.00;99917.44;7392456;19;20035;-82
2022/05/13 10:34:24;;;;;;;0.65;0.30;;;;;;;19.62;100.00;99907.34;7391541;19;20019;-84
2022/05/13 10:37:11;;;;;;;8.07;0.65;;;;;;;19.83;100.00;99910.34;7393481;19;20086;-83
2022/05/13 10:39:50;;;;;;;2.65;0.28;;;;;;;20.05;100.00;99910.00;7396737;19;20015;-83
2022/05/13 10:42:23;;;;;;;2.13;0.28;;;;;;;20.37;100.00;99914.31;7390896;19;20083;-82
2022/05/13 10:45:02;;;;;;;5.35;0.90;;;;;;;20.45;100.00;99908.78;7392608;19;20029;-82
2022/05/13 10:47:34;;;;;;;3.15;0.40;;;;;;;20.51;100.00;99912.25;7390833;19;20539;-82
2022/05/13 10:50:01;;;;;;;3.92;0.65;;;;;;;20.57;100.00;99909.34;7393740;19;20083;-83
2022/05/13 10:52:37;;;;;;;2.17;0.22;;;;;;;20.69;100.00;99902.13;7388815;19;20018;-83
2022/05/13 10:55:40;;;;;;;0.63;0.10;;;;;;;21.05;100.00;99915.31;7393134;19;20031;-82
2022/05/13 10:58:09;;;;;;;4.13;0.38;;;;;;;21.51;100.00;99910.19;7395240;19;20021;-83
2022/05/13 11:01:04;;;;;;;3.22;0.50;;;;;;;21.77;99.63;99912.94;7390362;19;20022;-82
2022/05/13 11:03:45;;;;;;;1.30;0.30;;;;;;;21.83;98.35;99913.56;7392392;19;20031;-83
2022/05/13 11:06:47;;;;;;;9.52;0.60;;;;;;;21.68;96.60;99902.06;7391345;19;20096;-83
2022/05/13 11:10:15;;;;;;;2.63;0.82;;;;;;;21.33;99.69;99922.47;7394554;19;20028;-83
2022/05/13 11:12:55;;;;;;;4.72;0.50;;;;;;;21.09;98.50;99924.22;7389971;19;20106;-82
2022/05/13 11:15:47;;;;;;;0.10;0.08;;;;;;;20.84;99.34;99917.28;7388723;19;20020;-82
2022/05/13 11:18:32;;;;;;;3.40;0.73;;;;;;;20.71;100.00;99937.09;7393128;19;20878;-82
2022/05/13 11:21:10;;;;;;;3.92;0.20;;;;;;;20.83;100.00;99915.75;7396666;19;20014;-81
2022/05/13 11:26:46;;;;;;;6.57;0.20;;;;;;;20.77;97.21;99923.59;7394009;19;20019;-81
2022/05/13 11:29:22;;;;;;;2.08;0.10;;;;;;;20.71;98.81;99922.94;7395751;19;20464;-81
2022/05/13 11:32:07;;;;;;;2.70;0.20;;;;;;;20.56;99.22;99922.72;7392597;19;20022;-82
2022/05/13 11:34:36;;;;;;;2.58;0.30;;;;;;;20.50;100.00;99933.38;7391807;19;20035;-82
2022/05/13 11:37:07;;;;;;;2.88;0.75;;;;;;;20.47;100.00;99917.47;7390384;19;20017;-81
2022/05/13 11:40:01;;;;;;;1.17;0.63;;;;;;;20.59;100.00;99929.34;7396798;19;20035;-82
2022/05/13 11:43:36;;;;;;;0.40;0.20;;;;;;;20.64;100.00;99931.31;7394581;19;20014;-82
2022/05/13 11:46:01;;;;;;;4.00;0.40;;;;;;;20.64;99.68;99929.25;7393028;19;20023;-82
2022/05/13 11:48:29;;;;;;;6.85;0.45;;;;;;;20.65;99.49;99922.28;7391257;19;20039;-82
2022/05/13 11:51:29;;;;;;;0.73;0.03;;;;;;;20.73;99.31;99928.81;7394226;19;20026;-82
2022/05/13 11:54:01;;;;;;;2.73;0.50;;;;;;;20.68;99.98;99915.53;7389426;19;20014;-82
2022/05/13 11:56:31;;;;;;;2.55;0.25;;;;;;;20.83;100.00;99915.75;7387130;19;20010;-82
2022/05/13 11:59:01;;;;;;;1.80;0.28;;;;;;;20.91;99.80;99922.28;7387303;19;20015;-82
2022/05/13 12:01:37;;;;;;;2.13;0.32;;;;;;;20.92;99.12;99912.47;7389680;19;20025;-82
2022/05/13 12:04:12;;;;;;;10.52;0.45;;;;;;;21.04;100.00;99913.03;7389365;19;20551;-81
2022/05/13 12:06:48;;;;;;;4.28;0.47;;;;;;;21.18;100.00;99910.94;7388564;19;20014;-82
2022/05/13 12:09:16;;;;;;;4.80;1.17;;;;;;;21.17;99.51;99909.41;7390043;19;20023;-82
2022/05/13 12:12:06;;;;;;;1.27;0.43;;;;;;;21.34;98.42;99919.06;7386502;19;20403;-85